sensor_id;sensor_type;location;lat;lon;timestamp;temperature;humidity
79018;DHT22;68421;44.714;37.756;2023-03-14T00:00:56;17.67;54.09
79018;DHT22;68421;44.714;37.756;2023-03-14T00:01:57;17.67;54.02
79018;DHT22;68421;44.714;37.756;2023-03-14T00:02:59;17.67;54.86
79018;DHT22;68421;44.714;37.756;2023-03-14T00:04:00;17.66;54.43
79018;DHT22;68421;44.714;37.756;2023-03-14T00:05:01;17.67;54.26
79018;DHT22;68421;44.714;37.756;2023-03-14T00:06:08;17.67;54.76
79018;DHT22;68421;44.714;37.756;2023-03-14T00:07:13;17.68;54.95
79018;DHT22;68421;44.714;37.756;2023-03-14T00:08:14;17.66;54.20
79018;DHT22;68421;44.714;37.756;2023-03-14T00:09:16;17.67;54.58
79018;DHT22;68421;44.714;37.756;2023-03-14T00:10:18;17.66;54.68
79018;DHT22;68421;44.714;37.756;2023-03-14T00:11:20;17.66;53.68
79018;DHT22;68421;44.714;37.756;2023-03-14T00:12:22;17.66;53.80
79018;DHT22;68421;44.714;37.756;2023-03-14T00:13:24;17.67;54.97
79018;DHT22;68421;44.714;37.756;2023-03-14T00:14:25;17.67;54.64
79018;DHT22;68421;44.714;37.756;2023-03-14T00:15:27;17.66;54.62
79018;DHT22;68421;44.714;37.756;2023-03-14T00:16:28;17.66;54.04
79018;DHT22;68421;44.714;37.756;2023-03-14T00:17:30;17.67;54.65
79018;DHT22;68421;44.714;37.756;2023-03-14T00:18:32;17.66;54.42
79018;DHT22;68421;44.714;37.756;2023-03-14T00:19:34;17.66;54.13
79018;DHT22;68421;44.714;37.756;2023-03-14T00:20:35;17.65;54.37
79018;DHT22;68421;44.714;37.756;2023-03-14T00:21:36;17.65;54.20
79018;DHT22;68421;44.714;37.756;2023-03-14T00:22:38;17.65;54.24
79018;DHT22;68421;44.714;37.756;2023-03-14T00:23:41;17.66;53.78
79018;DHT22;68421;44.714;37.756;2023-03-14T00:24:43;17.64;54.23
79018;DHT22;68421;44.714;37.756;2023-03-14T00:25:44;17.64;54.20
79018;DHT22;68421;44.714;37.756;2023-03-14T00:26:45;17.65;55.50
79018;DHT22;68421;44.714;37.756;2023-03-14T00:27:47;17.65;54.30
79018;DHT22;68421;44.714;37.756;2023-03-14T00:28:52;17.65;54.23
79018;DHT22;68421;44.714;37.756;2023-03-14T00:29:53;17.65;54.80
79018;DHT22;68421;44.714;37.756;2023-03-14T00:30:55;17.65;54.67
79018;DHT22;68421;44.714;37.756;2023-03-14T00:31:56;17.65;55.42
79018;DHT22;68421;44.714;37.756;2023-03-14T00:32:57;17.68;56.19
79018;DHT22;68421;44.714;37.756;2023-03-14T00:33:59;17.69;56.93
79018;DHT22;68421;44.714;37.756;2023-03-14T00:35:00;17.74;58.41
79018;DHT22;68421;44.714;37.756;2023-03-14T00:36:04;17.81;58.51
79018;DHT22;68421;44.714;37.756;2023-03-14T00:37:06;17.85;57.15
79018;DHT22;68421;44.714;37.756;2023-03-14T00:38:07;17.91;57.27
79018;DHT22;68421;44.714;37.756;2023-03-14T00:39:09;17.95;57.94
79018;DHT22;68421;44.714;37.756;2023-03-14T00:40:10;17.99;58.00
79018;DHT22;68421;44.714;37.756;2023-03-14T00:41:20;18.03;56.80
79018;DHT22;68421;44.714;37.756;2023-03-14T00:42:23;18.06;57.35
79018;DHT22;68421;44.714;37.756;2023-03-14T00:43:25;18.06;57.22
79018;DHT22;68421;44.714;37.756;2023-03-14T00:44:26;18.08;56.15
79018;DHT22;68421;44.714;37.756;2023-03-14T00:45:28;18.09;54.99
79018;DHT22;68421;44.714;37.756;2023-03-14T00:46:29;18.09;56.52
79018;DHT22;68421;44.714;37.756;2023-03-14T00:47:30;18.10;56.75
79018;DHT22;68421;44.714;37.756;2023-03-14T00:48:32;18.09;56.25
79018;DHT22;68421;44.714;37.756;2023-03-14T00:49:35;18.11;56.85
79018;DHT22;68421;44.714;37.756;2023-03-14T00:50:37;18.11;55.18
79018;DHT22;68421;44.714;37.756;2023-03-14T00:51:38;18.11;55.09
79018;DHT22;68421;44.714;37.756;2023-03-14T00:52:40;18.11;56.42
79018;DHT22;68421;44.714;37.756;2023-03-14T00:53:42;18.11;55.89
79018;DHT22;68421;44.714;37.756;2023-03-14T00:54:43;18.11;54.54
79018;DHT22;68421;44.714;37.756;2023-03-14T00:55:45;18.11;54.91
79018;DHT22;68421;44.714;37.756;2023-03-14T00:56:47;18.12;55.96
79018;DHT22;68421;44.714;37.756;2023-03-14T00:57:49;18.13;54.46
79018;DHT22;68421;44.714;37.756;2023-03-14T00:58:54;18.11;54.34
79018;DHT22;68421;44.714;37.756;2023-03-14T00:59:56;18.09;55.83
79018;DHT22;68421;44.714;37.756;2023-03-14T01:00:57;18.09;55.03
79018;DHT22;68421;44.714;37.756;2023-03-14T01:02:00;18.08;54.54
79018;DHT22;68421;44.714;37.756;2023-03-14T01:03:03;18.08;56.10
79018;DHT22;68421;44.714;37.756;2023-03-14T01:04:04;18.09;56.05
79018;DHT22;68421;44.714;37.756;2023-03-14T01:05:06;18.10;55.04
79018;DHT22;68421;44.714;37.756;2023-03-14T01:06:14;18.11;54.42
79018;DHT22;68421;44.714;37.756;2023-03-14T01:07:17;18.11;54.43
79018;DHT22;68421;44.714;37.756;2023-03-14T01:08:19;18.11;55.62
79018;DHT22;68421;44.714;37.756;2023-03-14T01:09:20;18.10;54.07
79018;DHT22;68421;44.714;37.756;2023-03-14T01:10:23;18.09;55.31
79018;DHT22;68421;44.714;37.756;2023-03-14T01:11:30;18.11;54.24
79018;DHT22;68421;44.714;37.756;2023-03-14T01:12:33;18.10;54.49
79018;DHT22;68421;44.714;37.756;2023-03-14T01:13:34;18.09;54.70
79018;DHT22;68421;44.714;37.756;2023-03-14T01:14:37;18.09;55.60
79018;DHT22;68421;44.714;37.756;2023-03-14T01:15:39;18.09;54.42
79018;DHT22;68421;44.714;37.756;2023-03-14T01:16:40;18.08;54.44
79018;DHT22;68421;44.714;37.756;2023-03-14T01:17:42;18.08;55.47
79018;DHT22;68421;44.714;37.756;2023-03-14T01:18:44;18.07;54.42
79018;DHT22;68421;44.714;37.756;2023-03-14T01:19:46;18.09;54.84
79018;DHT22;68421;44.714;37.756;2023-03-14T01:20:48;18.08;55.19
79018;DHT22;68421;44.714;37.756;2023-03-14T01:21:49;18.08;54.74
79018;DHT22;68421;44.714;37.756;2023-03-14T01:22:51;18.08;54.73
79018;DHT22;68421;44.714;37.756;2023-03-14T01:23:56;18.08;53.89
79018;DHT22;68421;44.714;37.756;2023-03-14T01:24:58;18.06;54.17
79018;DHT22;68421;44.714;37.756;2023-03-14T01:25:59;18.07;55.47
79018;DHT22;68421;44.714;37.756;2023-03-14T01:27:01;18.04;53.97
79018;DHT22;68421;44.714;37.756;2023-03-14T01:28:03;17.99;53.40
79018;DHT22;68421;44.714;37.756;2023-03-14T01:29:05;17.96;53.97
79018;DHT22;68421;44.714;37.756;2023-03-14T01:30:10;17.95;54.10
79018;DHT22;68421;44.714;37.756;2023-03-14T01:31:13;17.92;54.32
79018;DHT22;68421;44.714;37.756;2023-03-14T01:32:15;17.90;54.28
79018;DHT22;68421;44.714;37.756;2023-03-14T01:33:16;17.87;54.20
79018;DHT22;68421;44.714;37.756;2023-03-14T01:34:27;17.85;54.49
79018;DHT22;68421;44.714;37.756;2023-03-14T01:35:28;17.84;54.16
79018;DHT22;68421;44.714;37.756;2023-03-14T01:36:31;17.84;54.69
79018;DHT22;68421;44.714;37.756;2023-03-14T01:37:35;17.82;54.33
79018;DHT22;68421;44.714;37.756;2023-03-14T01:38:39;17.80;54.36
79018;DHT22;68421;44.714;37.756;2023-03-14T01:39:43;17.80;54.39
79018;DHT22;68421;44.714;37.756;2023-03-14T01:40:45;17.78;54.07
79018;DHT22;68421;44.714;37.756;2023-03-14T01:41:46;17.78;54.22
79018;DHT22;68421;44.714;37.756;2023-03-14T01:42:55;17.76;54.53
79018;DHT22;68421;44.714;37.756;2023-03-14T01:43:57;17.77;54.66
79018;DHT22;68421;44.714;37.756;2023-03-14T01:45:00;17.77;55.61
79018;DHT22;68421;44.714;37.756;2023-03-14T01:47:08;17.76;54.74
79018;DHT22;68421;44.714;37.756;2023-03-14T01:48:09;17.75;55.24
79018;DHT22;68421;44.714;37.756;2023-03-14T01:49:22;17.74;54.49
79018;DHT22;68421;44.714;37.756;2023-03-14T01:50:33;17.73;54.00
79018;DHT22;68421;44.714;37.756;2023-03-14T01:52:48;17.72;54.41
79018;DHT22;68421;44.714;37.756;2023-03-14T01:53:58;17.73;54.21
79018;DHT22;68421;44.714;37.756;2023-03-14T01:55:20;17.70;53.93
79018;DHT22;68421;44.714;37.756;2023-03-14T01:56:23;17.70;54.27
79018;DHT22;68421;44.714;37.756;2023-03-14T01:57:27;17.68;54.47
79018;DHT22;68421;44.714;37.756;2023-03-14T01:58:31;17.70;54.86
79018;DHT22;68421;44.714;37.756;2023-03-14T01:59:36;17.67;54.25
79018;DHT22;68421;44.714;37.756;2023-03-14T02:00:38;17.67;54.26
79018;DHT22;68421;44.714;37.756;2023-03-14T02:01:43;17.69;55.37
79018;DHT22;68421;44.714;37.756;2023-03-14T02:02:48;17.67;54.26
79018;DHT22;68421;44.714;37.756;2023-03-14T02:03:56;17.67;54.30
79018;DHT22;68421;44.714;37.756;2023-03-14T02:05:02;17.68;55.31
79018;DHT22;68421;44.714;37.756;2023-03-14T02:06:08;17.67;54.24
79018;DHT22;68421;44.714;37.756;2023-03-14T02:07:23;17.66;54.82
79018;DHT22;68421;44.714;37.756;2023-03-14T02:08:40;17.67;54.40
79018;DHT22;68421;44.714;37.756;2023-03-14T02:09:47;17.66;54.07
79018;DHT22;68421;44.714;37.756;2023-03-14T02:10:55;17.67;55.10
79018;DHT22;68421;44.714;37.756;2023-03-14T02:12:08;17.66;54.05
79018;DHT22;68421;44.714;37.756;2023-03-14T02:13:24;17.65;54.66
79018;DHT22;68421;44.714;37.756;2023-03-14T02:14:33;17.65;55.44
79018;DHT22;68421;44.714;37.756;2023-03-14T02:15:54;17.65;55.75
79018;DHT22;68421;44.714;37.756;2023-03-14T02:17:17;17.65;55.06
79018;DHT22;68421;44.714;37.756;2023-03-14T02:18:38;17.64;54.93
79018;DHT22;68421;44.714;37.756;2023-03-14T02:22:20;17.64;55.37
79018;DHT22;68421;44.714;37.756;2023-03-14T02:24:54;17.63;55.20
79018;DHT22;68421;44.714;37.756;2023-03-14T02:26:08;17.64;55.53
79018;DHT22;68421;44.714;37.756;2023-03-14T02:27:20;17.62;54.52
79018;DHT22;68421;44.714;37.756;2023-03-14T02:28:22;17.62;54.87
79018;DHT22;68421;44.714;37.756;2023-03-14T02:29:29;17.62;55.34
79018;DHT22;68421;44.714;37.756;2023-03-14T02:30:33;17.63;55.52
79018;DHT22;68421;44.714;37.756;2023-03-14T02:31:36;17.62;54.49
79018;DHT22;68421;44.714;37.756;2023-03-14T02:32:41;17.63;55.44
79018;DHT22;68421;44.714;37.756;2023-03-14T02:33:44;17.61;54.36
79018;DHT22;68421;44.714;37.756;2023-03-14T02:34:48;17.61;54.23
79018;DHT22;68421;44.714;37.756;2023-03-14T02:35:57;17.61;55.78
79018;DHT22;68421;44.714;37.756;2023-03-14T02:37:00;17.60;54.04
79018;DHT22;68421;44.714;37.756;2023-03-14T02:38:31;17.60;55.12
79018;DHT22;68421;44.714;37.756;2023-03-14T02:39:40;17.60;54.88
79018;DHT22;68421;44.714;37.756;2023-03-14T02:40:43;17.60;54.51
79018;DHT22;68421;44.714;37.756;2023-03-14T02:41:44;17.59;54.20
79018;DHT22;68421;44.714;37.756;2023-03-14T02:42:47;17.60;54.17
79018;DHT22;68421;44.714;37.756;2023-03-14T02:43:49;17.60;54.33
79018;DHT22;68421;44.714;37.756;2023-03-14T02:44:54;17.59;55.48
79018;DHT22;68421;44.714;37.756;2023-03-14T02:45:56;17.60;54.78
79018;DHT22;68421;44.714;37.756;2023-03-14T02:46:59;17.58;55.52
79018;DHT22;68421;44.714;37.756;2023-03-14T02:48:05;17.58;53.64
79018;DHT22;68421;44.714;37.756;2023-03-14T02:49:14;17.58;54.23
79018;DHT22;68421;44.714;37.756;2023-03-14T02:50:18;17.59;54.36
79018;DHT22;68421;44.714;37.756;2023-03-14T02:51:21;17.58;54.50
79018;DHT22;68421;44.714;37.756;2023-03-14T02:52:23;17.58;54.58
79018;DHT22;68421;44.714;37.756;2023-03-14T02:53:30;17.56;54.77
79018;DHT22;68421;44.714;37.756;2023-03-14T02:54:35;17.58;54.80
79018;DHT22;68421;44.714;37.756;2023-03-14T02:55:36;17.56;55.08
79018;DHT22;68421;44.714;37.756;2023-03-14T02:56:44;17.55;54.34
79018;DHT22;68421;44.714;37.756;2023-03-14T02:57:47;17.56;54.59
79018;DHT22;68421;44.714;37.756;2023-03-14T02:58:49;17.56;54.42
79018;DHT22;68421;44.714;37.756;2023-03-14T03:00:22;17.54;54.02
79018;DHT22;68421;44.714;37.756;2023-03-14T03:01:24;17.54;54.62
79018;DHT22;68421;44.714;37.756;2023-03-14T03:02:27;17.55;53.86
79018;DHT22;68421;44.714;37.756;2023-03-14T03:03:28;17.54;54.59
79018;DHT22;68421;44.714;37.756;2023-03-14T03:04:30;17.54;54.15
79018;DHT22;68421;44.714;37.756;2023-03-14T03:05:32;17.54;55.13
79018;DHT22;68421;44.714;37.756;2023-03-14T03:06:34;17.55;55.10
79018;DHT22;68421;44.714;37.756;2023-03-14T03:07:36;17.53;54.84
79018;DHT22;68421;44.714;37.756;2023-03-14T03:08:37;17.55;55.38
79018;DHT22;68421;44.714;37.756;2023-03-14T03:09:39;17.53;53.88
79018;DHT22;68421;44.714;37.756;2023-03-14T03:10:40;17.54;54.98
79018;DHT22;68421;44.714;37.756;2023-03-14T03:11:41;17.53;54.75
79018;DHT22;68421;44.714;37.756;2023-03-14T03:12:46;17.53;54.23
79018;DHT22;68421;44.714;37.756;2023-03-14T03:13:47;17.53;55.07
79018;DHT22;68421;44.714;37.756;2023-03-14T03:14:49;17.52;54.54
79018;DHT22;68421;44.714;37.756;2023-03-14T03:15:51;17.53;54.81
79018;DHT22;68421;44.714;37.756;2023-03-14T03:16:53;17.52;54.93
79018;DHT22;68421;44.714;37.756;2023-03-14T03:17:55;17.52;54.75
79018;DHT22;68421;44.714;37.756;2023-03-14T03:18:57;17.53;54.30
79018;DHT22;68421;44.714;37.756;2023-03-14T03:19:58;17.51;54.55
79018;DHT22;68421;44.714;37.756;2023-03-14T03:21:03;17.52;54.32
79018;DHT22;68421;44.714;37.756;2023-03-14T03:22:05;17.53;55.63
79018;DHT22;68421;44.714;37.756;2023-03-14T03:23:06;17.52;54.74
79018;DHT22;68421;44.714;37.756;2023-03-14T03:24:08;17.52;54.75
79018;DHT22;68421;44.714;37.756;2023-03-14T03:25:09;17.51;54.70
79018;DHT22;68421;44.714;37.756;2023-03-14T03:26:11;17.51;54.15
79018;DHT22;68421;44.714;37.756;2023-03-14T03:27:12;17.50;54.40
79018;DHT22;68421;44.714;37.756;2023-03-14T03:28:14;17.51;54.52
79018;DHT22;68421;44.714;37.756;2023-03-14T03:29:15;17.52;54.13
79018;DHT22;68421;44.714;37.756;2023-03-14T03:30:17;17.51;55.15
79018;DHT22;68421;44.714;37.756;2023-03-14T03:31:18;17.49;54.07
79018;DHT22;68421;44.714;37.756;2023-03-14T03:32:19;17.50;55.56
79018;DHT22;68421;44.714;37.756;2023-03-14T03:33:21;17.49;53.98
79018;DHT22;68421;44.714;37.756;2023-03-14T03:34:27;17.50;54.20
79018;DHT22;68421;44.714;37.756;2023-03-14T03:35:30;17.49;54.39
79018;DHT22;68421;44.714;37.756;2023-03-14T03:36:32;17.50;54.80
79018;DHT22;68421;44.714;37.756;2023-03-14T03:37:34;17.50;55.72
79018;DHT22;68421;44.714;37.756;2023-03-14T03:38:37;17.49;54.52
79018;DHT22;68421;44.714;37.756;2023-03-14T03:39:39;17.50;54.40
79018;DHT22;68421;44.714;37.756;2023-03-14T03:40:41;17.50;54.99
79018;DHT22;68421;44.714;37.756;2023-03-14T03:41:43;17.50;55.08
79018;DHT22;68421;44.714;37.756;2023-03-14T03:42:45;17.49;55.07
79018;DHT22;68421;44.714;37.756;2023-03-14T03:43:48;17.50;55.20
79018;DHT22;68421;44.714;37.756;2023-03-14T03:44:51;17.49;54.77
79018;DHT22;68421;44.714;37.756;2023-03-14T03:45:52;17.50;55.45
79018;DHT22;68421;44.714;37.756;2023-03-14T03:46:55;17.52;55.36
79018;DHT22;68421;44.714;37.756;2023-03-14T03:47:57;17.51;54.77
79018;DHT22;68421;44.714;37.756;2023-03-14T03:48:59;17.51;55.34
79018;DHT22;68421;44.714;37.756;2023-03-14T03:50:02;17.52;54.96
79018;DHT22;68421;44.714;37.756;2023-03-14T03:51:04;17.52;55.24
79018;DHT22;68421;44.714;37.756;2023-03-14T03:52:07;17.52;54.47
79018;DHT22;68421;44.714;37.756;2023-03-14T03:53:08;17.53;55.59
79018;DHT22;68421;44.714;37.756;2023-03-14T03:54:10;17.51;54.46
79018;DHT22;68421;44.714;37.756;2023-03-14T03:55:12;17.52;53.72
79018;DHT22;68421;44.714;37.756;2023-03-14T03:56:14;17.50;53.14
79018;DHT22;68421;44.714;37.756;2023-03-14T03:57:17;17.49;55.45
79018;DHT22;68421;44.714;37.756;2023-03-14T03:58:18;17.49;54.01
79018;DHT22;68421;44.714;37.756;2023-03-14T03:59:20;17.49;52.99
79018;DHT22;68421;44.714;37.756;2023-03-14T04:00:23;17.49;52.91
79018;DHT22;68421;44.714;37.756;2023-03-14T04:01:24;17.48;53.14
79018;DHT22;68421;44.714;37.756;2023-03-14T04:02:29;17.47;53.51
79018;DHT22;68421;44.714;37.756;2023-03-14T04:03:31;17.48;53.71
79018;DHT22;68421;44.714;37.756;2023-03-14T04:04:32;17.48;53.37
79018;DHT22;68421;44.714;37.756;2023-03-14T04:05:36;17.46;53.36
79018;DHT22;68421;44.714;37.756;2023-03-14T04:06:42;17.46;53.83
79018;DHT22;68421;44.714;37.756;2023-03-14T04:07:44;17.48;53.62
79018;DHT22;68421;44.714;37.756;2023-03-14T04:08:47;17.48;54.86
79018;DHT22;68421;44.714;37.756;2023-03-14T04:10:14;17.67;66.04
79018;DHT22;68421;44.714;37.756;2023-03-14T04:11:22;17.81;53.18
79018;DHT22;68421;44.714;37.756;2023-03-14T04:12:31;17.88;52.82
79018;DHT22;68421;44.714;37.756;2023-03-14T04:13:39;17.88;55.52
79018;DHT22;68421;44.714;37.756;2023-03-14T04:14:40;17.92;56.48
79018;DHT22;68421;44.714;37.756;2023-03-14T04:15:54;18.00;57.89
79018;DHT22;68421;44.714;37.756;2023-03-14T04:16:59;18.02;52.53
79018;DHT22;68421;44.714;37.756;2023-03-14T04:18:01;17.99;52.59
79018;DHT22;68421;44.714;37.756;2023-03-14T04:19:03;17.97;52.92
79018;DHT22;68421;44.714;37.756;2023-03-14T04:20:08;17.99;52.27
79018;DHT22;68421;44.714;37.756;2023-03-14T04:21:12;18.02;51.90
79018;DHT22;68421;44.714;37.756;2023-03-14T04:22:20;18.07;56.57
79018;DHT22;68421;44.714;37.756;2023-03-14T04:23:25;18.09;53.28
79018;DHT22;68421;44.714;37.756;2023-03-14T04:24:27;18.07;52.73
79018;DHT22;68421;44.714;37.756;2023-03-14T04:25:30;18.10;54.80
79018;DHT22;68421;44.714;37.756;2023-03-14T04:26:33;18.10;54.80
79018;DHT22;68421;44.714;37.756;2023-03-14T04:27:35;18.10;54.68
79018;DHT22;68421;44.714;37.756;2023-03-14T04:28:38;18.09;53.93
79018;DHT22;68421;44.714;37.756;2023-03-14T04:29:42;18.06;54.45
79018;DHT22;68421;44.714;37.756;2023-03-14T04:30:45;18.08;53.88
79018;DHT22;68421;44.714;37.756;2023-03-14T04:31:52;18.09;54.78
79018;DHT22;68421;44.714;37.756;2023-03-14T04:32:53;18.07;53.27
79018;DHT22;68421;44.714;37.756;2023-03-14T04:33:57;18.06;54.10
79018;DHT22;68421;44.714;37.756;2023-03-14T04:35:07;18.07;53.18
79018;DHT22;68421;44.714;37.756;2023-03-14T04:36:09;18.08;54.55
79018;DHT22;68421;44.714;37.756;2023-03-14T04:37:10;18.08;54.23
79018;DHT22;68421;44.714;37.756;2023-03-14T04:38:16;18.13;53.73
79018;DHT22;68421;44.714;37.756;2023-03-14T04:39:20;18.15;52.59
79018;DHT22;68421;44.714;37.756;2023-03-14T04:40:28;18.18;54.99
79018;DHT22;68421;44.714;37.756;2023-03-14T04:41:35;18.17;54.94
79018;DHT22;68421;44.714;37.756;2023-03-14T04:42:36;18.15;52.51
79018;DHT22;68421;44.714;37.756;2023-03-14T04:43:38;18.13;52.30
79018;DHT22;68421;44.714;37.756;2023-03-14T04:44:43;18.11;51.81
79018;DHT22;68421;44.714;37.756;2023-03-14T04:45:45;18.08;52.60
79018;DHT22;68421;44.714;37.756;2023-03-14T04:46:47;18.07;52.36
79018;DHT22;68421;44.714;37.756;2023-03-14T04:47:49;18.06;53.70
79018;DHT22;68421;44.714;37.756;2023-03-14T04:48:53;18.05;53.74
79018;DHT22;68421;44.714;37.756;2023-03-14T04:49:57;18.04;54.33
79018;DHT22;68421;44.714;37.756;2023-03-14T04:50:59;18.03;54.18
79018;DHT22;68421;44.714;37.756;2023-03-14T04:52:05;18.00;54.23
79018;DHT22;68421;44.714;37.756;2023-03-14T04:53:07;18.00;54.87
79018;DHT22;68421;44.714;37.756;2023-03-14T04:54:09;17.97;54.67
79018;DHT22;68421;44.714;37.756;2023-03-14T04:55:11;17.96;54.23
79018;DHT22;68421;44.714;37.756;2023-03-14T04:56:12;17.96;54.50
79018;DHT22;68421;44.714;37.756;2023-03-14T04:57:15;17.95;54.65
79018;DHT22;68421;44.714;37.756;2023-03-14T04:58:18;17.92;55.24
79018;DHT22;68421;44.714;37.756;2023-03-14T04:59:20;17.90;54.33
79018;DHT22;68421;44.714;37.756;2023-03-14T05:00:22;17.91;55.10
79018;DHT22;68421;44.714;37.756;2023-03-14T05:01:32;17.90;55.02
79018;DHT22;68421;44.714;37.756;2023-03-14T05:03:00;17.90;55.17
79018;DHT22;68421;44.714;37.756;2023-03-14T05:04:30;17.88;55.09
79018;DHT22;68421;44.714;37.756;2023-03-14T05:05:52;17.83;55.07
79018;DHT22;68421;44.714;37.756;2023-03-14T05:07:10;17.81;54.35
79018;DHT22;68421;44.714;37.756;2023-03-14T05:08:28;17.80;55.39
79018;DHT22;68421;44.714;37.756;2023-03-14T05:09:46;17.79;55.54
79018;DHT22;68421;44.714;37.756;2023-03-14T05:10:55;17.78;55.51
79018;DHT22;68421;44.714;37.756;2023-03-14T05:12:35;17.77;55.56
79018;DHT22;68421;44.714;37.756;2023-03-14T05:13:56;17.74;55.75
79018;DHT22;68421;44.714;37.756;2023-03-14T05:15:18;17.73;55.78
79018;DHT22;68421;44.714;37.756;2023-03-14T05:16:42;17.73;55.84
79018;DHT22;68421;44.714;37.756;2023-03-14T05:17:49;17.70;55.87
79018;DHT22;68421;44.714;37.756;2023-03-14T05:19:16;17.69;55.83
79018;DHT22;68421;44.714;37.756;2023-03-14T05:20:41;17.69;55.86
79018;DHT22;68421;44.714;37.756;2023-03-14T05:22:10;17.69;55.72
79018;DHT22;68421;44.714;37.756;2023-03-14T05:23:38;17.68;55.80
79018;DHT22;68421;44.714;37.756;2023-03-14T05:24:49;17.68;55.72
79018;DHT22;68421;44.714;37.756;2023-03-14T05:26:10;17.66;55.94
79018;DHT22;68421;44.714;37.756;2023-03-14T05:27:26;17.65;55.96
79018;DHT22;68421;44.714;37.756;2023-03-14T05:28:34;17.62;56.00
79018;DHT22;68421;44.714;37.756;2023-03-14T05:29:56;17.61;56.07
79018;DHT22;68421;44.714;37.756;2023-03-14T05:31:18;17.59;55.94
79018;DHT22;68421;44.714;37.756;2023-03-14T05:32:38;17.59;56.01
79018;DHT22;68421;44.714;37.756;2023-03-14T05:34:02;17.56;56.21
79018;DHT22;68421;44.714;37.756;2023-03-14T05:35:21;17.54;56.26
79018;DHT22;68421;44.714;37.756;2023-03-14T05:36:43;17.53;56.21
79018;DHT22;68421;44.714;37.756;2023-03-14T05:37:55;17.54;56.18
79018;DHT22;68421;44.714;37.756;2023-03-14T05:39:12;17.54;56.16
79018;DHT22;68421;44.714;37.756;2023-03-14T05:40:36;17.54;56.23
79018;DHT22;68421;44.714;37.756;2023-03-14T05:42:16;17.51;56.32
79018;DHT22;68421;44.714;37.756;2023-03-14T05:43:33;17.52;56.29
79018;DHT22;68421;44.714;37.756;2023-03-14T05:44:53;17.52;56.26
79018;DHT22;68421;44.714;37.756;2023-03-14T05:46:10;17.54;56.06
79018;DHT22;68421;44.714;37.756;2023-03-14T05:47:32;17.54;56.13
79018;DHT22;68421;44.714;37.756;2023-03-14T05:48:52;17.54;56.15
79018;DHT22;68421;44.714;37.756;2023-03-14T05:50:22;17.53;56.21
79018;DHT22;68421;44.714;37.756;2023-03-14T05:51:40;17.52;56.24
79018;DHT22;68421;44.714;37.756;2023-03-14T05:53:02;17.50;56.25
79018;DHT22;68421;44.714;37.756;2023-03-14T05:54:16;17.48;56.21
79018;DHT22;68421;44.714;37.756;2023-03-14T05:55:26;17.48;56.18
79018;DHT22;68421;44.714;37.756;2023-03-14T05:56:57;17.47;56.32
79018;DHT22;68421;44.714;37.756;2023-03-14T05:57:59;17.47;56.37
79018;DHT22;68421;44.714;37.756;2023-03-14T05:59:23;17.47;56.39
79018;DHT22;68421;44.714;37.756;2023-03-14T06:00:43;17.46;56.33
79018;DHT22;68421;44.714;37.756;2023-03-14T06:01:55;17.46;56.34
79018;DHT22;68421;44.714;37.756;2023-03-14T06:03:01;17.47;56.27
79018;DHT22;68421;44.714;37.756;2023-03-14T06:04:07;17.46;56.26
79018;DHT22;68421;44.714;37.756;2023-03-14T06:05:09;17.46;56.39
79018;DHT22;68421;44.714;37.756;2023-03-14T06:06:11;17.47;56.39
79018;DHT22;68421;44.714;37.756;2023-03-14T06:07:13;17.46;56.36
79018;DHT22;68421;44.714;37.756;2023-03-14T06:08:15;17.45;56.45
79018;DHT22;68421;44.714;37.756;2023-03-14T06:09:17;17.44;56.37
79018;DHT22;68421;44.714;37.756;2023-03-14T06:10:21;17.46;56.35
79018;DHT22;68421;44.714;37.756;2023-03-14T06:11:23;17.45;56.39
79018;DHT22;68421;44.714;37.756;2023-03-14T06:12:24;17.45;56.39
79018;DHT22;68421;44.714;37.756;2023-03-14T06:13:26;17.45;56.42
79018;DHT22;68421;44.714;37.756;2023-03-14T06:14:28;17.44;56.37
79018;DHT22;68421;44.714;37.756;2023-03-14T06:15:29;17.43;56.46
79018;DHT22;68421;44.714;37.756;2023-03-14T06:16:31;17.44;56.42
79018;DHT22;68421;44.714;37.756;2023-03-14T06:17:34;17.43;56.27
79018;DHT22;68421;44.714;37.756;2023-03-14T06:18:43;17.43;56.16
79018;DHT22;68421;44.714;37.756;2023-03-14T06:19:48;17.43;56.34
79018;DHT22;68421;44.714;37.756;2023-03-14T06:20:54;17.41;56.42
79018;DHT22;68421;44.714;37.756;2023-03-14T06:22:00;17.40;56.48
79018;DHT22;68421;44.714;37.756;2023-03-14T06:23:01;17.43;56.54
79018;DHT22;68421;44.714;37.756;2023-03-14T06:24:04;17.44;56.63
79018;DHT22;68421;44.714;37.756;2023-03-14T06:25:11;17.41;56.55
79018;DHT22;68421;44.714;37.756;2023-03-14T06:26:13;17.43;56.45
79018;DHT22;68421;44.714;37.756;2023-03-14T06:27:14;17.43;56.50
79018;DHT22;68421;44.714;37.756;2023-03-14T06:28:16;17.45;56.36
79018;DHT22;68421;44.714;37.756;2023-03-14T06:29:18;17.45;55.85
79018;DHT22;68421;44.714;37.756;2023-03-14T06:30:19;17.44;55.83
79018;DHT22;68421;44.714;37.756;2023-03-14T06:31:21;17.43;55.62
79018;DHT22;68421;44.714;37.756;2023-03-14T06:32:28;17.44;55.30
79018;DHT22;68421;44.714;37.756;2023-03-14T06:33:34;17.47;55.49
79018;DHT22;68421;44.714;37.756;2023-03-14T06:34:36;17.47;55.22
79018;DHT22;68421;44.714;37.756;2023-03-14T06:35:37;17.46;55.27
79018;DHT22;68421;44.714;37.756;2023-03-14T06:36:39;17.47;55.20
79018;DHT22;68421;44.714;37.756;2023-03-14T06:37:41;17.49;54.97
79018;DHT22;68421;44.714;37.756;2023-03-14T06:38:43;17.50;55.09
79018;DHT22;68421;44.714;37.756;2023-03-14T06:39:44;17.51;55.04
79018;DHT22;68421;44.714;37.756;2023-03-14T06:40:54;17.52;54.93
79018;DHT22;68421;44.714;37.756;2023-03-14T06:42:06;17.53;54.81
79018;DHT22;68421;44.714;37.756;2023-03-14T06:43:07;17.54;54.87
79018;DHT22;68421;44.714;37.756;2023-03-14T06:44:11;17.54;54.84
79018;DHT22;68421;44.714;37.756;2023-03-14T06:45:13;17.55;54.84
79018;DHT22;68421;44.714;37.756;2023-03-14T06:46:15;17.59;54.94
79018;DHT22;68421;44.714;37.756;2023-03-14T06:47:17;17.60;54.55
79018;DHT22;68421;44.714;37.756;2023-03-14T06:48:20;17.60;54.62
79018;DHT22;68421;44.714;37.756;2023-03-14T06:49:26;17.61;54.73
79018;DHT22;68421;44.714;37.756;2023-03-14T06:50:30;17.62;54.46
79018;DHT22;68421;44.714;37.756;2023-03-14T06:51:33;17.63;54.51
79018;DHT22;68421;44.714;37.756;2023-03-14T06:52:37;17.66;54.49
79018;DHT22;68421;44.714;37.756;2023-03-14T06:53:42;17.66;54.38
79018;DHT22;68421;44.714;37.756;2023-03-14T06:54:44;17.68;54.39
79018;DHT22;68421;44.714;37.756;2023-03-14T06:55:45;17.67;54.36